createdAt,value
2022-11-27T00:01:21.251Z,102273.75
2022-11-27T00:03:48.555Z,102277.59
2022-11-27T00:06:17.920Z,102271.63
2022-11-27T00:08:45.380Z,102255.78
2022-11-27T00:11:20.440Z,102285.59
2022-11-27T00:13:47.515Z,102276.09
2022-11-27T00:16:14.966Z,102270.91
2022-11-27T00:18:42.826Z,102283.94
2022-11-27T00:21:13.398Z,102284.03
2022-11-27T00:23:40.248Z,102274.66
2022-11-27T00:26:07.697Z,102281.97
2022-11-27T00:28:35.521Z,102275.63
2022-11-27T00:31:08.854Z,102277.66
2022-11-27T00:33:35.679Z,102282.06
2022-11-27T00:36:06.981Z,102270.66
2022-11-27T00:38:38.481Z,102268.16
2022-11-27T00:41:19.950Z,102273.56
2022-11-27T00:43:46.973Z,102275.50
2022-11-27T00:46:14.820Z,102266.41
2022-11-27T00:48:42.438Z,102258.56
2022-11-27T00:51:12.724Z,102278.03
2022-11-27T00:53:39.790Z,102282.59
2022-11-27T00:56:07.232Z,102278.25
2022-11-27T00:58:34.258Z,102274.88
2022-11-27T01:01:06.878Z,102282.19
2022-11-27T01:03:34.217Z,102257.84
2022-11-27T01:06:07.435Z,102268.06
2022-11-27T01:08:34.839Z,102281.41
2022-11-27T01:11:01.920Z,102273.25
2022-11-27T01:13:31.608Z,102278.28
2022-11-27T01:16:25.476Z,102270.22
2022-11-27T01:18:54.918Z,102271.69
2022-11-27T01:21:21.800Z,102267.22
2022-11-27T01:23:49.428Z,102259.63
2022-11-27T01:26:17.794Z,102263.38
2022-11-27T01:28:44.617Z,102269.03
2022-11-27T01:31:17.594Z,102265.00
2022-11-27T01:33:45.036Z,102267.03
2022-11-27T01:36:13.517Z,102265.13
2022-11-27T01:38:40.631Z,102237.50
2022-11-27T01:41:18.993Z,102260.06
2022-11-27T01:43:59.809Z,102261.63
2022-11-27T01:46:38.356Z,102259.66
2022-11-27T01:49:11.072Z,102256.31
2022-11-27T01:51:52.352Z,102255.72
2022-11-27T01:54:20.611Z,102258.41
2022-11-27T01:56:51.801Z,102250.78
2022-11-27T01:59:19.428Z,102234.03
2022-11-27T02:01:46.086Z,102246.50
2022-11-27T02:04:13.006Z,102246.34
2022-11-27T02:06:39.825Z,102240.59
2022-11-27T02:09:06.812Z,102248.38
2022-11-27T02:11:41.155Z,102246.41
2022-11-27T02:14:22.948Z,102237.63
2022-11-27T02:17:20.235Z,102244.78
2022-11-27T02:20:06.204Z,102256.28
2022-11-27T02:23:03.924Z,102245.88
2022-11-27T02:25:36.544Z,102252.81
2022-11-27T02:28:37.119Z,102253.84
2022-11-27T02:31:25.645Z,102244.19
2022-11-27T02:33:56.020Z,102224.09
2022-11-27T02:36:29.839Z,102241.31
2022-11-27T02:39:04.764Z,102228.03
2022-11-27T02:41:39.404Z,102231.81
2022-11-27T02:44:10.028Z,102216.97
2022-11-27T02:46:38.069Z,102205.03
2022-11-27T02:49:12.871Z,102229.22
2022-11-27T02:51:53.896Z,102217.97
2022-11-27T02:54:26.263Z,102219.69
2022-11-27T02:56:54.841Z,102219.09
2022-11-27T02:59:23.388Z,102195.41
2022-11-27T03:01:57.329Z,102217.44
2022-11-27T03:04:32.347Z,102212.53
2022-11-27T03:07:05.604Z,102210.34
2022-11-27T03:09:53.173Z,102209.94
2022-11-27T03:12:20.208Z,102203.81
2022-11-27T03:14:48.667Z,102202.91
2022-11-27T03:17:21.155Z,102216.25
2022-11-27T03:20:00.906Z,102219.97
2022-11-27T03:22:28.345Z,102215.13
2022-11-27T03:24:55.280Z,102195.28
2022-11-27T03:27:27.898Z,102221.63
2022-11-27T03:30:00.075Z,102220.41
2022-11-27T03:32:28.648Z,102215.88
2022-11-27T03:34:56.151Z,102208.47
2022-11-27T03:37:23.667Z,102211.50
2022-11-27T03:39:51.262Z,102207.00
2022-11-27T03:42:56.581Z,102225.19
2022-11-27T03:45:38.438Z,102217.47
2022-11-27T03:48:29.977Z,102218.44
2022-11-27T03:51:21.218Z,102211.03
2022-11-27T03:54:26.396Z,102216.19
2022-11-27T03:56:58.388Z,102213.69
2022-11-27T03:59:32.850Z,102205.91
2022-11-27T04:01:59.657Z,102214.78
2022-11-27T04:04:26.241Z,102206.84
2022-11-27T04:06:52.836Z,102212.41
2022-11-27T04:09:19.975Z,102219.88
2022-11-27T04:11:46.516Z,102217.78
2022-11-27T04:14:13.065Z,102220.75
2022-11-27T04:16:39.588Z,102228.19
2022-11-27T04:19:06.415Z,102226.59
2022-11-27T04:21:33.001Z,102208.22
2022-11-27T04:23:59.507Z,102216.09
2022-11-27T04:26:26.063Z,102203.97
2022-11-27T04:28:52.616Z,102213.78
2022-11-27T04:31:19.147Z,102212.25
2022-11-27T04:33:45.699Z,102222.69
2022-11-27T04:36:12.226Z,102202.03
2022-11-27T04:38:38.772Z,102200.50
2022-11-27T04:41:05.510Z,102223.91
2022-11-27T04:43:32.063Z,102217.63
2022-11-27T04:45:58.642Z,102214.78
2022-11-27T04:48:25.199Z,102215.41
2022-11-27T04:50:51.685Z,102213.84
2022-11-27T04:53:18.342Z,102207.16
2022-11-27T04:55:44.840Z,102220.19
2022-11-27T04:58:11.396Z,102223.84
2022-11-27T05:00:38.166Z,102210.72
2022-11-27T05:03:04.814Z,102223.09
2022-11-27T05:05:31.411Z,102222.31
2022-11-27T05:07:58.238Z,102220.66
2022-11-27T05:10:24.867Z,102218.97
2022-11-27T05:12:51.457Z,102224.38
2022-11-27T05:15:18.092Z,102217.47
2022-11-27T05:17:44.585Z,102222.97
2022-11-27T05:20:11.469Z,102214.28
2022-11-27T05:22:38.043Z,102218.72
2022-11-27T05:25:04.763Z,102221.56
2022-11-27T05:27:31.612Z,102219.78
2022-11-27T05:29:58.145Z,102212.94
2022-11-27T05:32:25.092Z,102216.41
2022-11-27T05:34:51.920Z,102217.53
2022-11-27T05:37:19.885Z,102203.81
2022-11-27T05:39:46.799Z,102203.91
2022-11-27T05:42:13.392Z,102209.88
2022-11-27T05:44:40.189Z,102209.88
2022-11-27T05:47:07.104Z,102202.69
2022-11-27T05:49:33.891Z,102203.22
2022-11-27T05:52:00.359Z,102214.72
2022-11-27T05:54:27.028Z,102216.53
2022-11-27T05:56:53.509Z,102217.59
2022-11-27T05:59:20.114Z,102215.97
2022-11-27T06:01:46.744Z,102222.97
2022-11-27T06:04:13.262Z,102214.31
2022-11-27T06:06:39.884Z,102214.00
2022-11-27T06:09:12.248Z,102201.69
2022-11-27T06:11:39.547Z,102226.78
2022-11-27T06:14:08.747Z,102222.78
2022-11-27T06:16:35.125Z,102235.03
2022-11-27T06:19:01.708Z,102244.72
2022-11-27T06:21:28.285Z,102223.16
2022-11-27T06:23:56.555Z,102240.44
2022-11-27T06:26:26.554Z,102246.03
2022-11-27T06:28:53.885Z,102250.81
2022-11-27T06:31:23.186Z,102239.38
2022-11-27T06:33:51.564Z,102246.44
2022-11-27T06:36:19.262Z,102251.09
2022-11-27T06:38:46.135Z,102245.13
2022-11-27T06:41:16.237Z,102250.38
2022-11-27T06:43:42.943Z,102257.34
2022-11-27T06:46:13.798Z,102253.53
2022-11-27T06:48:40.623Z,102248.09
2022-11-27T06:51:07.964Z,102257.94
2022-11-27T06:53:37.507Z,102262.09
2022-11-27T06:56:06.137Z,102258.88
2022-11-27T06:58:32.721Z,102265.44
2022-11-27T07:01:00.613Z,102244.47
2022-11-27T07:03:27.510Z,102241.13
2022-11-27T07:05:54.327Z,102251.75
2022-11-27T07:08:22.369Z,102247.56
2022-11-27T07:10:48.925Z,102270.53
2022-11-27T07:13:15.511Z,102274.91
2022-11-27T07:15:42.467Z,102242.91
2022-11-27T07:18:09.188Z,102245.19
2022-11-27T07:20:35.722Z,102252.81
2022-11-27T07:23:02.234Z,102238.91
2022-11-27T07:25:28.877Z,102236.69
2022-11-27T07:37:01.733Z,102242.47
2022-11-27T07:39:54.076Z,102258.38
2022-11-27T07:45:01.553Z,102238.66
2022-11-27T07:47:29.933Z,102249.19
2022-11-27T07:49:58.520Z,102259.00
2022-11-27T07:52:25.130Z,102265.69
2022-11-27T07:54:51.689Z,102261.94
2022-11-27T07:57:18.235Z,102288.50
2022-11-27T07:59:47.501Z,102294.06
2022-11-27T08:02:14.863Z,102292.16
2022-11-27T08:04:41.720Z,102272.66
2022-11-27T08:07:08.578Z,102293.56
2022-11-27T08:09:35.224Z,102285.50
2022-11-27T08:12:01.815Z,102291.41
2022-11-27T08:14:28.393Z,102284.56
2022-11-27T08:16:55.004Z,102274.03
2022-11-27T08:19:21.962Z,102279.38
2022-11-27T08:21:48.476Z,102269.69
2022-11-27T08:24:15.030Z,102276.97
2022-11-27T08:26:41.736Z,102253.66
2022-11-27T08:29:11.753Z,102264.25
2022-11-27T08:31:38.938Z,102247.16
2022-11-27T08:34:05.594Z,102280.03
2022-11-27T08:36:32.177Z,102280.34
2022-11-27T08:38:58.792Z,102266.03
2022-11-27T08:41:25.367Z,102274.00
2022-11-27T08:43:51.985Z,102278.28
2022-11-27T08:46:18.699Z,102251.69
2022-11-27T08:48:45.280Z,102249.53
2022-11-27T08:51:13.724Z,102277.63
2022-11-27T08:53:40.760Z,102260.50
2022-11-27T08:56:10.191Z,102279.81
2022-11-27T08:58:36.834Z,102284.91
2022-11-27T09:01:17.630Z,102269.97
2022-11-27T09:03:44.833Z,102250.31
2022-11-27T09:06:14.337Z,102295.47
2022-11-27T09:08:42.580Z,102277.00
2022-11-27T09:11:10.734Z,102279.34
2022-11-27T09:13:37.458Z,102291.34
2022-11-27T09:16:05.639Z,102263.16
2022-11-27T09:18:32.275Z,102299.78
2022-11-27T09:21:01.714Z,102270.88
2022-11-27T09:23:29.012Z,102282.13
2022-11-27T09:26:02.322Z,102291.47
2022-11-27T09:28:31.612Z,102304.25
2022-11-27T09:31:00.966Z,102268.84
2022-11-27T09:33:29.834Z,102287.09
2022-11-27T09:35:56.710Z,102282.09
2022-11-27T09:38:26.293Z,102290.22
2022-11-27T09:41:03.131Z,102279.19
2022-11-27T09:43:36.729Z,102273.25
2022-11-27T09:46:09.887Z,102270.66
2022-11-27T09:48:47.101Z,102278.69
2022-11-27T09:51:34.100Z,102258.38
2022-11-27T09:54:12.855Z,102258.19
2022-11-27T09:56:42.920Z,102263.47
2022-11-27T09:59:16.528Z,102276.09
2022-11-27T10:01:47.697Z,102248.31
2022-11-27T10:04:20.193Z,102258.63
2022-11-27T10:07:09.114Z,102235.16
2022-11-27T10:10:04.478Z,102215.69
2022-11-27T10:12:36.184Z,102252.81
2022-11-27T10:15:14.036Z,102212.72
2022-11-27T10:17:49.028Z,102228.63
2022-11-27T10:20:23.564Z,102233.41
2022-11-27T10:23:00.162Z,102199.22
2022-11-27T10:25:33.038Z,102187.66
2022-11-27T10:28:06.139Z,102185.03
2022-11-27T10:30:43.269Z,102205.88
2022-11-27T10:33:19.535Z,102204.19
2022-11-27T10:35:49.261Z,102187.81
2022-11-27T10:38:22.394Z,102188.97
2022-11-27T10:41:07.841Z,102190.66
2022-11-27T10:43:36.642Z,102171.63
2022-11-27T10:46:13.946Z,102172.78
2022-11-27T10:48:40.734Z,102177.72
2022-11-27T10:51:17.578Z,102192.91
2022-11-27T10:53:47.211Z,102172.81
2022-11-27T10:56:15.178Z,102193.38
2022-11-27T10:59:07.636Z,102151.72
2022-11-27T11:01:49.365Z,102160.97
2022-11-27T11:04:54.540Z,102172.41
2022-11-27T11:07:29.490Z,102185.44
2022-11-27T11:09:56.540Z,102142.63
2022-11-27T11:12:24.032Z,102168.41
2022-11-27T11:15:00.652Z,102126.81
2022-11-27T11:17:34.893Z,102139.56
2022-11-27T11:20:17.920Z,102154.22
2022-11-27T11:22:47.103Z,102124.97
2022-11-27T11:25:18.303Z,102135.78
2022-11-27T11:27:46.026Z,102121.25
2022-11-27T11:30:21.129Z,102145.72
2022-11-27T11:32:49.351Z,102121.09
2022-11-27T11:35:37.137Z,102108.28
2022-11-27T11:38:06.135Z,102104.63
2022-11-27T11:40:37.513Z,102111.03
2022-11-27T11:43:26.984Z,102098.09
2022-11-27T11:45:53.737Z,102099.34
2022-11-27T11:48:27.703Z,102095.91
2022-11-27T11:51:01.404Z,102086.31
2022-11-27T11:53:45.579Z,102111.13
2022-11-27T11:56:41.472Z,102114.97
2022-11-27T11:59:34.331Z,102091.44
2022-11-27T12:02:25.887Z,102116.59
2022-11-27T12:05:14.087Z,102122.25
2022-11-27T12:08:25.632Z,102108.66
2022-11-27T12:11:01.091Z,102096.19
2022-11-27T12:13:45.022Z,102099.34
2022-11-27T12:16:14.661Z,102100.63
2022-11-27T12:19:05.786Z,102082.81
2022-11-27T12:21:40.056Z,102052.53
2022-11-27T12:24:40.861Z,102080.28
2022-11-27T12:27:12.673Z,102076.88
2022-11-27T12:30:11.340Z,102080.19
2022-11-27T12:33:09.779Z,102084.31
2022-11-27T12:35:44.589Z,102075.81
2022-11-27T12:38:30.240Z,102048.81
2022-11-27T12:41:26.384Z,102030.78
2022-11-27T12:44:00.113Z,102058.53
2022-11-27T12:46:51.904Z,102038.41
2022-11-27T12:49:32.002Z,102038.31
2022-11-27T12:52:10.219Z,102036.47
2022-11-27T12:54:48.666Z,102037.16
2022-11-27T12:57:20.850Z,102026.25
2022-11-27T12:59:53.550Z,102048.59
2022-11-27T13:03:09.167Z,102034.22
2022-11-27T13:06:05.632Z,102044.91
2022-11-27T13:08:52.433Z,102020.00
2022-11-27T13:11:23.683Z,102009.00
2022-11-27T13:13:57.580Z,102025.50
2022-11-27T13:16:43.858Z,102019.81
2022-11-27T13:19:29.159Z,102013.69
2022-11-27T13:21:57.724Z,101992.06
2022-11-27T13:24:27.072Z,102005.44
2022-11-27T13:27:08.581Z,102017.69
2022-11-27T13:29:46.367Z,101996.44
2022-11-27T13:32:32.951Z,101977.34
2022-11-27T13:35:03.692Z,101973.06
2022-11-27T13:37:32.415Z,101996.75
2022-11-27T13:40:07.939Z,101987.59
2022-11-27T13:42:36.775Z,102007.84
2022-11-27T13:45:11.489Z,101997.41
2022-11-27T13:47:41.737Z,101981.56
2022-11-27T13:50:18.947Z,101975.56
2022-11-27T13:52:54.737Z,101956.50
2022-11-27T13:55:28.173Z,101991.41
2022-11-27T13:57:56.832Z,101986.56
2022-11-27T14:00:36.848Z,101995.81
2022-11-27T14:03:04.509Z,101990.97
2022-11-27T14:05:43.264Z,101966.25
2022-11-27T14:08:17.083Z,101998.59
2022-11-27T14:10:51.358Z,101980.66
2022-11-27T14:13:20.616Z,101975.66
2022-11-27T14:16:05.056Z,101945.56
2022-11-27T14:18:31.893Z,101968.63
2022-11-27T14:21:04.299Z,101981.84
2022-11-27T14:23:34.251Z,101983.78
2022-11-27T14:26:13.420Z,101973.28
2022-11-27T14:28:45.158Z,101971.84
2022-11-27T14:31:43.296Z,101983.22
2022-11-27T14:34:34.359Z,101949.34
2022-11-27T14:37:01.584Z,101963.16
2022-11-27T14:39:37.598Z,101969.41
2022-11-27T14:42:18.794Z,101967.78
2022-11-27T14:44:45.334Z,101926.13
2022-11-27T14:47:20.156Z,101945.44
2022-11-27T14:49:46.822Z,101938.59
2022-11-27T14:52:16.556Z,101952.22
2022-11-27T14:54:44.778Z,101941.63
2022-11-27T14:57:20.143Z,101940.44
2022-11-27T14:59:46.649Z,101940.69
2022-11-27T15:02:13.178Z,101934.84
2022-11-27T15:04:42.557Z,101945.88
2022-11-27T15:07:22.907Z,101937.34
2022-11-27T15:09:52.570Z,101951.19
2022-11-27T15:12:34.142Z,101943.75
2022-11-27T15:15:28.927Z,101950.25
2022-11-27T15:17:59.006Z,101923.59
2022-11-27T15:20:35.075Z,101947.84
2022-11-27T15:23:02.521Z,101922.66
2022-11-27T15:25:33.045Z,101930.00
2022-11-27T15:27:59.721Z,101935.88
2022-11-27T15:30:26.421Z,101929.25
2022-11-27T15:32:55.377Z,101923.22
2022-11-27T15:35:24.932Z,101939.63
2022-11-27T15:37:52.448Z,101898.47
2022-11-27T15:40:31.059Z,101924.38
2022-11-27T15:42:57.773Z,101926.22
2022-11-27T15:45:29.285Z,101935.38
2022-11-27T15:48:00.795Z,101893.19
2022-11-27T15:50:29.407Z,101928.91
2022-11-27T15:52:56.693Z,101900.34
2022-11-27T15:55:23.750Z,101902.63
2022-11-27T15:57:50.310Z,101898.25
2022-11-27T16:00:17.523Z,101929.22
2022-11-27T16:02:44.311Z,101905.84
2022-11-27T16:05:11.057Z,101905.13
2022-11-27T16:07:37.749Z,101901.06
2022-11-27T16:10:05.290Z,101907.22
2022-11-27T16:12:32.132Z,101923.75
2022-11-27T16:14:58.752Z,101908.72
2022-11-27T16:17:25.263Z,101894.38
2022-11-27T16:19:51.848Z,101885.91
2022-11-27T16:22:19.059Z,101890.97
2022-11-27T16:24:45.870Z,101895.91
2022-11-27T16:27:12.550Z,101926.59
2022-11-27T16:29:39.331Z,101885.41
2022-11-27T16:32:07.396Z,101903.41
2022-11-27T16:34:34.077Z,101894.09
2022-11-27T16:37:00.884Z,101908.56
2022-11-27T16:39:28.503Z,101888.16
2022-11-27T16:41:55.168Z,101900.56
2022-11-27T16:44:21.681Z,101894.75
2022-11-27T16:46:48.500Z,101880.94
2022-11-27T16:49:15.001Z,101906.56
2022-11-27T16:51:42.007Z,101880.94
2022-11-27T16:54:11.856Z,101874.09
2022-11-27T16:56:38.690Z,101888.13
2022-11-27T16:59:13.549Z,101887.06
2022-11-27T17:01:41.689Z,101872.53
2022-11-27T17:04:14.217Z,101869.94
2022-11-27T17:06:40.772Z,101890.94
2022-11-27T17:09:08.510Z,101873.22
2022-11-27T17:11:37.375Z,101860.75
2022-11-27T17:14:06.892Z,101885.31
2022-11-27T17:16:35.413Z,101870.41
2022-11-27T17:19:02.386Z,101846.38
2022-11-27T17:21:31.293Z,101873.03
2022-11-27T17:24:02.814Z,101873.09
2022-11-27T17:26:30.927Z,101868.38
2022-11-27T17:28:57.530Z,101829.84
2022-11-27T17:31:26.913Z,101861.69
2022-11-27T17:33:57.259Z,101847.31
2022-11-27T17:36:30.429Z,101867.03
2022-11-27T17:39:04.695Z,101870.13
2022-11-27T17:41:31.324Z,101840.38
2022-11-27T17:43:57.880Z,101849.56
2022-11-27T17:46:27.177Z,101841.06
2022-11-27T17:48:54.577Z,101863.69
2022-11-27T17:51:21.652Z,101860.44
2022-11-27T17:53:48.407Z,101853.69
2022-11-27T17:56:17.983Z,101874.88
2022-11-27T17:58:45.089Z,101819.03
2022-11-27T18:01:18.492Z,101851.09
2022-11-27T18:03:46.842Z,101821.75
2022-11-27T18:06:15.683Z,101860.97
2022-11-27T18:08:42.453Z,101815.47
2022-11-27T18:11:12.698Z,101866.41
2022-11-27T18:13:39.732Z,101813.84
2022-11-27T18:16:09.180Z,101857.84
2022-11-27T18:18:36.356Z,101812.59
2022-11-27T18:21:18.038Z,101821.97
2022-11-27T18:24:14.475Z,101842.75
2022-11-27T18:26:52.581Z,101810.78
2022-11-27T18:29:19.118Z,101816.41
2022-11-27T18:31:46.799Z,101821.97
2022-11-27T18:34:13.714Z,101827.09
2022-11-27T18:36:40.266Z,101791.72
2022-11-27T18:39:06.838Z,101801.44
2022-11-27T18:41:33.487Z,101790.94
2022-11-27T18:44:00.266Z,101784.84
2022-11-27T18:46:26.895Z,101818.16
2022-11-27T18:48:53.559Z,101814.22
2022-11-27T18:51:23.005Z,101818.16
2022-11-27T18:53:50.927Z,101823.66
2022-11-27T18:56:24.584Z,101820.72
2022-11-27T18:58:51.664Z,101816.97
2022-11-27T19:01:21.884Z,101818.06
2022-11-27T19:03:48.877Z,101803.06
2022-11-27T19:06:18.078Z,101827.50
2022-11-27T19:08:45.102Z,101832.81
2022-11-27T19:11:14.734Z,101816.41
2022-11-27T19:13:42.275Z,101818.47
2022-11-27T19:16:13.180Z,101824.69
2022-11-27T19:18:40.508Z,101796.94
2022-11-27T19:21:09.285Z,101794.59
2022-11-27T19:23:39.412Z,101828.34
2022-11-27T19:26:14.858Z,101806.22
2022-11-27T19:28:41.808Z,101809.91
2022-11-27T19:31:10.707Z,101800.31
2022-11-27T19:33:38.269Z,101790.16
2022-11-27T19:36:08.683Z,101825.66
2022-11-27T19:38:35.821Z,101800.44
2022-11-27T19:41:04.228Z,101833.19
2022-11-27T19:43:30.892Z,101827.38
2022-11-27T19:45:58.029Z,101822.38
2022-11-27T19:48:24.763Z,101822.75
2022-11-27T19:50:52.134Z,101796.03
2022-11-27T19:53:19.513Z,101809.00
2022-11-27T19:55:53.573Z,101791.97
2022-11-27T19:58:20.269Z,101782.44
2022-11-27T20:00:47.240Z,101802.97
2022-11-27T20:03:15.134Z,101783.97
2022-11-27T20:05:41.724Z,101769.09
2022-11-27T20:08:08.404Z,101806.03
2022-11-27T20:10:35.275Z,101772.03
2022-11-27T20:13:03.016Z,101784.22
2022-11-27T20:15:30.099Z,101795.97
2022-11-27T20:17:56.948Z,101764.69
2022-11-27T20:20:23.604Z,101805.06
2022-11-27T20:22:50.440Z,101786.53
2022-11-27T20:25:19.859Z,101769.97
2022-11-27T20:27:47.084Z,101761.19
2022-11-27T20:30:13.877Z,101786.53
2022-11-27T20:32:40.481Z,101777.97
2022-11-27T20:35:07.480Z,101781.50
2022-11-27T20:37:34.880Z,101777.56
2022-11-27T20:40:01.682Z,101758.53
2022-11-27T20:42:28.289Z,101742.31
2022-11-27T20:44:54.841Z,101776.31
2022-11-27T20:47:21.443Z,101773.75
2022-11-27T20:49:47.977Z,101772.72
2022-11-27T20:52:14.905Z,101745.03
2022-11-27T20:54:41.470Z,101750.22
2022-11-27T20:57:13.939Z,101738.66
2022-11-27T20:59:41.908Z,101745.72
2022-11-27T21:02:12.187Z,101766.44
2022-11-27T21:04:38.796Z,101728.63
2022-11-27T21:07:05.836Z,101745.19
2022-11-27T21:09:32.701Z,101714.13
2022-11-27T21:11:59.767Z,101751.91
2022-11-27T21:14:26.765Z,101750.22
2022-11-27T21:16:54.297Z,101738.25
2022-11-27T21:19:24.462Z,101741.09
2022-11-27T21:21:52.599Z,101690.41
2022-11-27T21:24:21.100Z,101723.75
2022-11-27T21:26:48.048Z,101734.22
2022-11-27T21:29:15.697Z,101723.03
2022-11-27T21:31:46.862Z,101686.03
2022-11-27T21:34:14.143Z,101737.84
2022-11-27T21:36:41.001Z,101737.34
2022-11-27T21:39:09.591Z,101732.78
2022-11-27T21:41:36.805Z,101736.47
2022-11-27T21:44:05.041Z,101739.13
2022-11-27T21:46:32.107Z,101722.81
2022-11-27T21:49:00.843Z,101742.84
2022-11-27T21:51:28.580Z,101717.44
2022-11-27T21:53:56.188Z,101705.22
2022-11-27T21:56:26.078Z,101733.22
2022-11-27T21:58:52.742Z,101726.94
2022-11-27T22:01:22.498Z,101720.16
2022-11-27T22:03:51.456Z,101713.97
2022-11-27T22:06:18.717Z,101702.63
2022-11-27T22:08:47.949Z,101692.81
2022-11-27T22:11:16.128Z,101723.19
2022-11-27T22:13:43.296Z,101715.69
2022-11-27T22:16:15.655Z,101688.44
2022-11-27T22:18:42.737Z,101718.03
2022-11-27T22:21:11.036Z,101710.31
2022-11-27T22:23:38.441Z,101698.97
2022-11-27T22:26:07.067Z,101686.19
2022-11-27T22:28:35.799Z,101717.09
2022-11-27T22:31:09.088Z,101718.03
2022-11-27T22:33:37.080Z,101701.63
2022-11-27T22:36:17.811Z,101723.97
2022-11-27T22:38:49.647Z,101719.78
2022-11-27T22:41:17.240Z,101713.34
2022-11-27T22:43:45.042Z,101710.97
2022-11-27T22:46:20.780Z,101710.97
2022-11-27T22:48:47.646Z,101713.91
2022-11-27T22:51:14.232Z,101708.06
2022-11-27T22:53:40.942Z,101707.47
2022-11-27T22:56:10.768Z,101709.19
2022-11-27T22:58:41.387Z,101715.66
2022-11-27T23:01:21.004Z,101706.13
2022-11-27T23:03:47.870Z,101714.22
2022-11-27T23:06:17.246Z,101713.44
2022-11-27T23:08:45.539Z,101716.94
2022-11-27T23:11:25.210Z,101712.84
2022-11-27T23:13:52.990Z,101713.44
2022-11-27T23:16:20.269Z,101705.81
2022-11-27T23:18:47.324Z,101702.13
2022-11-27T23:21:16.111Z,101714.69
2022-11-27T23:23:43.347Z,101704.03
2022-11-27T23:26:17.696Z,101699.91
2022-11-27T23:28:45.444Z,101664.59
2022-11-27T23:31:29.527Z,101697.13
2022-11-27T23:33:57.365Z,101689.25
2022-11-27T23:36:23.957Z,101683.31
2022-11-27T23:38:50.564Z,101689.25
2022-11-27T23:41:20.355Z,101691.03
2022-11-27T23:43:47.227Z,101664.16
2022-11-27T23:46:15.882Z,101673.44
2022-11-27T23:48:43.400Z,101671.72
2022-11-27T23:51:18.236Z,101680.47
2022-11-27T23:53:45.260Z,101678.78
2022-11-27T23:56:14.984Z,101678.59
2022-11-27T23:58:46.696Z,101674.56
